Here is the Quick Look data you requested

The Data originates at the National Weather Service, and is made available here by the UAlbany Department of Atmospheric and Environmental Sciences

Surface Observations

PAAQ 171553Z AUTO 00000KT 10SM OVC100 M02/M04 A2944 RMK AO2 SLP975 T10171039
 TSNO=
PABA 171552Z AUTO 01010KT 2 1/2SM -SN BR BKN012 BKN019 OVC025 M06/M08 A2945 RMK
 AO2 VIS 1 3/4V4 UPB1455E1459SNE1455B05 SLP958 P0000 T10611078 FZRANO TSNO=
PABE 171553Z 02007KT 10SM CLR M03/M04 A2942 RMK AO2 SLP964 I1000 T10331044=
PABI 171553Z 11003KT 10SM OVC043 M04/M04 A2950 RMK AO2 SLP014 T10391044=
PABL 171556Z AUTO 28003KT 3SM BR OVC006 00/00 A2952 RMK AO2 UPB28E56SNE28 CIG
 003V007 SLP998 P0001 T00000000 FZRANO=
PABR 171553Z 25010KT 4SM -SN BR SCT012 BKN031 OVC038 M04/M06 A2945 RMK AO2
 SLP975 P0000 T10391056 $=
PABT 171553Z 32005KT 10SM SCT055 M15/M17 A2948 RMK AO2 SLP001 T11501172=
PABV 171556Z AUTO 18004KT 10SM OVC100 M04/M05 A2947 RMK AO2 SLP990 T10391050
 FZRANO $=
PACD 171553Z 02021G26KT 10SM FEW033 BKN055 OVC070 04/03 A2889 RMK AO2 PK WND
 03031/1532 SLP783 T00390028=
PACV 171553Z 00000KT 10SM BKN048 BKN055 OVC070 01/00 A2944 RMK AO2 SLP969
 T00060000=
PACZ 171555Z AUTO 07010KT 10SM CLR 01/M01 A2947 RMK AO2 SLP986 T00061015=
PADK 171556Z AUTO 31021G29KT 10SM -RA BKN030 BKN042 OVC070 07/03 A2974 RMK AO2
 PK WND 32032/1509 SLP071 P0000 T00720028=
PADL 171545Z 04014G20KT 10SM BKN033 OVC041 01/M02 A2935=
PADQ 171553Z 27005KT 10SM SCT035 M01/M02 A2934 RMK AO2 SLP937 T10111022=
PADU 171556Z 07011G16KT 9SM -RA OVC014 06/03 A2899 RMK AO2 SLP821 MH P0006
 T00560028=
PAED 171556Z AUTO 00000KT 10SM CLR M05/M06 A2945 RMK AO2 SLP971 T10541060=
PAEG 171553Z AUTO 00000KT 10SM OVC070 M06/M07 A2946 RMK AO2 SLP990 T10561067
 TSNO=
PAEH 171555Z AUTO 07013KT 10SM OVC009 02/01 A2930 RMK AO2 SLP927 T00220010=
PAEI 171556Z 15003KT 10SM FEW021 BKN040 BKN065 OVC080 M03/M04 A2950 RMK AO2A
 SLPNO ALSTG ESTMD $=
PAEM 171556Z AUTO 00000KT 10SM OVC038 M01/M01 A2951 RMK AO2 SLP053 T10111011
 FZRANO=
PAEN 171553Z 04006KT 10SM CLR M06/M07 A2945 RMK AO2 SLP975 I1000 T10611067=
PAFA 171553Z 00000KT 10SM FEW015 BKN048 OVC075 M03/M04 A2949 RMK AO2 SNE44
 SLP994 P0000 T10331039 $=
PAFB 171558Z 00000KT 7SM BKN045 BKN060 OVC075 M03/M04 A2949 RMK UPB1507E1552
 SLP994=
PAFE 171556Z AUTO VRB05KT 10SM CLR 03/02 A2968 RMK AO2 SLP063 T00280022=
PAFM 171556Z AUTO 00000KT 10SM BKN055 M04/M06 A2951 RMK AO2 SLP009 T10441061
 FZRANO=
PAGA 171556Z AUTO 17003KT 10SM OVC070 M02/M04 A2950 RMK AO2 SLP993 T10171039
 FZRANO=
PAGK 171553Z AUTO 34003KT 10SM SCT045 OVC095 M08/M09 A2948 RMK AO2 SLP020
 T10781094 TSNO $=
PAGM 171556Z AUTO 03020G24KT 10SM SCT016 OVC032 02/M02 A2961 RMK AO2 SLP034
 T00171017 FZRANO=
PAGS 171556Z AUTO 08004KT 10SM -RA FEW013 BKN025 OVC042 04/03 A2959 RMK AO2
 RAB42 SLP021 P0000 T00390028=
PAGY 171553Z AUTO 20012G22KT 10SM OVC070 07/02 A2954 RMK AO2 SLP003 T00670022
 TSNO=
PAHN 171554Z AUTO 09005KT 10SM SCT019 BKN024 BKN065 06/03 A2954 RMK AO2 SLP007
 T00560028 TSNO=
PAHO 171553Z 06006KT 10SM CLR M04/M07 A2943 RMK AO2 SLP966 T10441067=
PAHP 171556Z AUTO 04004KT 10SM CLR M02/M03 A2950 RMK AO2 SLP028 T10221028
 FZRANO=
PAHY 171556Z AUTO 00000KT 10SM -RA BKN033 BKN041 04/04 A2972 RMK AO2 SLP060
 T00440039 PNO $=
PAII 171556Z AUTO 07009KT 10SM CLR 01/M01 A2927 RMK AO2 SLP913 T00111006 FZRANO=
PAIL 171553Z 01008KT 10SM OVC100 M02/M04 A2940 RMK AO2 SLP958 T10171044=
PAIM 171555Z AUTO 00000KT 6SM -SHSN BKN019 OVC044 M02/M03 A2943 RMK AO2
 SHRAB1410E1511SHRASNB1511E1536SHSNB1536 SLP984 P0000 T10251030=
PAIN 171556Z AUTO 00000KT 10SM OVC020 M06/M08 A2944 RMK AO2 SLP004 T10561083
 FZRANO=
PAJN 171553Z 07005KT 9SM -RA FEW003 BKN032 OVC044 04/04 A2960 RMK AO2 SLP023
 P0001 T00440039=
PAKK 171556Z AUTO 31004KT 10SM SCT005 BKN020 OVC025 00/M01 A2947 RMK AO2 SLP993
 T00001006 FZRANO=
PAKN 171554Z 04006KT 10SM OVC055 01/M02 A2928 RMK AO2 SLP916 T00111017=
PAKP 171556Z AUTO 00000KT 3SM -SN BR FEW015 BKN027 OVC032 M12/M13 A2937 RMK AO2
 SLP006 P0000 T11171133 FZRANO=
PAKT 171553Z 00000KT 10SM FEW010 FEW045 03/03 A2971 RMK AO2 SLP062 HARBOR WIND
 06006KT T00330028=
PAKU 171547Z 06003KT 4SM R06/P6000FT -SN BR BKN023 OVC035 M06/M08 A2944=
PAKV 171553Z AUTO 00000KT 10SM OVC060 M02/M04 A2953 RMK AO2 SLP003 T10221039
 TSNO=
PAKW 171553Z AUTO 18005KT 6SM -RA BR OVC029 04/03 A2970 RMK AO2 SLP058 P0008
 T00440028 TSNO=
PALH 171553Z 00000KT 10SM CLR M02/M06 A2948 RMK AO2 SLP982 T10221061=
PALU 171555Z 03013KT 10SM -SN OVC016 00/M03 A2961 RMK AO2A SLP025 RCRNR=
PAMH 171556Z AUTO 00000KT 10SM OVC042 M02/M04 A2948 RMK AO2 SLP002 T10221044
 FZRANO=
PAMM 171556Z AUTO 11003KT 10SM CLR 05/04 A2973 RMK AO2 SLP057 T00500039=
PAMR 171553Z 00000KT 10SM CLR M05/M07 A2946 RMK SLP977 T10501067 VIA AUTODIAL=
PAMY 171556Z AUTO 05014KT 10SM FEW018 SCT025 BKN032 03/00 A2944 RMK AO2 SLP973
 T00280000=
PANC 171553Z 00000KT 10SM FEW012 FEW070 M04/M06 A2946 RMK AO2 SLP979 T10391061=
PANI 171556Z AUTO 00000KT 10SM OVC038 M01/M02 A2946 RMK AO2 SLP946 T10111017
 FZRANO=
PANN 171553Z AUTO 00000KT 10SM OVC047 M02/M04 A2947 RMK AO2 SLP989 T10171044
 TSNO=
PAOH 171556Z AUTO 00000KT 1 3/4SM -RA BR BKN001 BKN042 OVC110 01/01 A2960 RMK
 AO2 RAE32B56 SLP023 P0002 T00110011 FZRANO=
PAOM 171553Z 34007KT 10SM SCT026 BKN060 M02/M03 A2951 RMK AO2 SLP994 T10171033=
PAOR 171553Z 00000KT 10SM FEW110 M14/M15 A2949 RMK AO2 SLP030 I1000 T11391150=
PAOT 171553Z 02008KT 10SM CLR M03/M04 A2952 RMK AO2 SLP995 T10281039=
PAPB 171553Z AUTO 02019G24KT 10SM SCT023 SCT028 BKN036 05/02 A2933 RMK AO2
 SLP921 T00500022 TSNO=
PAPG 171556Z 27003KT 1/2SM FG SCT003 OVC021 04/04 A2968 RMK AO2 SLP055
 T00390039=
PAPH 171556Z AUTO 04014KT 10SM SCT036 SCT045 BKN085 04/02 A2910 RMK AO2 RAE54
 SLP858 P0000 T00390022=
PAPO 171556Z AUTO 03020KT 10SM SCT047 00/M02 A2959 RMK AO2 PK WND 02027/1457
 UPB1459E26 SLP021 P0000 T00001017 FZRANO=
PAPR 171550Z 36003KT 5SM BR SCT001 OVC005 M10/ A2941 RMK VIS S 2SM=
PAQT 171553Z AUTO 04005KT 5SM -SN BR OVC018 M06/M07 A2946 RMK AO2 UPE29SNB29
 SLP976 P0000 T10561067 TSNO=
PASA 171556Z AUTO 02014G22KT 10SM BKN014 OVC020 02/01 A2959 RMK AO2
 RAB16E32SNE16 SLP023 P0001 T00170006 FZRANO $=
PASC 171553Z 22005KT 3SM -SN BR OVC037 M08/M08 A2943 RMK AO2 SLP968 P0000
 T10781083=
PASD 171556Z 07010G16KT 040V120 10SM -RA OVC016 05/03 A2890 RMK AO2 SLP790 DA
 P0004 T00500028=
PASH 171556Z AUTO 36013KT 10SM BKN022 01/M03 A2957 RMK AO2 SLP014 T00111033
 FZRANO=
PASI 171553Z 09005KT 9SM -RA SCT026 BKN035 OVC047 04/03 A2963 RMK AO2 SLP034
 P0005 T00440033=
PASK 171556Z AUTO 00000KT 10SM OVC004 M02/M02 A2953 RMK AO2 SLP995 T10171022
 FZRANO $=
PASL 171556Z AUTO 00000KT 10SM OVC037 M01/M02 A2951 RMK AO2 SLP991 T10111017
 FZRANO=
PASM 171556Z AUTO 10003KT 9SM -SN OVC021 M02/M02 A2951 RMK AO2 SNB49 SLP010
 P0000 T10221022 FZRANO=
PASN 171553Z AUTO 02014G19KT 10SM FEW020 SCT027 SCT095 04/02 A2938 RMK AO2
 SLP950 T00390022 TSNO=
PASO 171553Z AUTO 00000KT 10SM FEW090 M03/M04 A2942 RMK AO2 SLP963 I1001
 T10331044 TSNO=
PASV 171555Z AUTO 05006KT 10SM CLR M05/M07 A2938 RMK AO2 SLP975 T10491070=
PASX 171556Z AUTO 09004KT 10SM CLR M07/M08 A2940 RMK AO2 SLP966 T10721083
 FZRANO $=
PASY 171558Z AUTO 25014KT 7SM FEW130 03/00 A2985 RMK AO2 SLP112 T00341004 $=
PATA 171552Z 02003KT 10SM OVC048 M02/M02 A2949 RMK AO2 SLP992 T10171017 PNO=
PATC 171555Z 04011KT 10SM BKN028 00/M04 A2957 RMK AO2A SLP017 RCRNR=
PATK 171553Z AUTO 35004KT 10SM CLR M05/M09 A2947 RMK AO2 SLP986 T10501089 TSNO=
PATL 171555Z AUTO 00000KT 10SM OVC027 M02/M05 A2950 RMK AO2 SLP004 T10201050=
PATO 171553Z AUTO 00000KT 10SM BKN050 BKN065 OVC085 M02/M04 A2947 RMK AO2
 SLP979 T10221039 TSNO=
PAUN 171556Z AUTO 07008KT 10SM CLR M02/M03 A2951 RMK AO2 SLP998 T10221033
 FZRANO=
PAVD 171556Z 00000KT 10SM SCT050 BKN060 BKN090 04/M06 A2946 RMK AO2 SLP000
 1551Z WEA: NONE TWR WND 32003KT T00391061 $=
PAVL 171553Z AUTO 01007KT 10SM CLR M03/M06 A2956 RMK AO2 SLP009 T10331056 TSNO
 PNO $=
PAWD 171553Z AUTO 01011KT 10SM FEW049 00/M04 A2945 RMK AO2 SLP972 T00001044
 TSNO=
PAWG 171556Z 08006KT 10SM FEW002 BKN040 OVC050 05/04 A2970 RMK AO2 RAE23 SLP057
 P0000 T00500039=
PAWI 171553Z AUTO 28005KT 3SM -SN BR FEW012 SCT023 OVC049 M02/M04 A2950 RMK AO2
 SLP990 P0000 T10221039 TSNO=
PAYA 171555Z 07005KT 10SM OVC026 03/02 A2949 RMK TSNO=
PAZK 171556Z AUTO 02006KT 9SM -SN SCT011 OVC025 M08/M09 A2935 RMK AO2 SNB31
 SLP000 P0000 T10831094 FZRANO=
PPIZ 171556Z AUTO 00000KT 9SM -SN FEW015 SCT020 OVC028 M03/M03 A2957 RMK AO2
 SNB05 SLP018 P0000 T10281033 FZRANO TSNO=